Thursday, June 21, 2018, 11:59 AM EDT
Back to Local

KDYL, Doylestown Airport

Location: Doylestown, PA, United States Lat: 40.333
Local Time: 11:59 AM EDT (15:59 GMT) Lon: -75.117
Time Zone: US/Eastern Elev: 393 ft

Show me the last for .
Show Decoded

2018-06-21 10:54 METAR KDYL 211454Z AUTO 01006KT 10SM FEW050 SCT065 OVC100 24/17 A2980 RMK AO2
                 RAB06E15 SLP086 P0000 60000 T02390167 51009 =
2018-06-21 10:07 METAR KDYL 211407Z AUTO 36006KT 10SM -RA FEW019 BKN049 OVC070 22/18 A2980 RMK
                 AO2 RAB06 P0000 T02170183 =
2018-06-21 09:54 METAR KDYL 211354Z AUTO 36006KT 10SM FEW014 BKN019 OVC049 22/18 A2980 RMK AO2
                 SLP086 T02170178 =
2018-06-21 09:34 METAR KDYL 211334Z AUTO 35004KT 10SM BKN015 BKN046 OVC070 22/19 A2980 RMK AO2
                 T02170189 =
2018-06-21 09:08 METAR KDYL 211308Z AUTO 36005KT 10SM SCT009 BKN046 OVC070 22/19 A2979 RMK AO2
                 T02170194 =
2018-06-21 08:54 METAR KDYL 211254Z AUTO 36004KT 10SM BKN008 BKN013 OVC046 21/19 A2979 RMK AO2
                 CIG 006V011 SLP082 T02060194 =
2018-06-21 07:54 METAR KDYL 211154Z AUTO VRB03KT 10SM OVC005 19/19 A2978 RMK AO2 RAB32E46 SLP078
                 P0001 60003 70003 T01940189 10211 20189 51011 =
2018-06-21 06:54 METAR KDYL 211054Z AUTO 00000KT 10SM BKN007 OVC034 19/19 A2977 RMK AO2 CIG
                 005V011 SLP077 T01940189 =
2018-06-21 06:39 METAR KDYL 211039Z AUTO 00000KT 10SM SCT009 OVC034 19/19 A2976 RMK AO2 T01890189
                 =
2018-06-21 06:11 METAR KDYL 211011Z AUTO 00000KT 10SM BKN008 OVC038 19/19 A2976 RMK AO2 T01890189
                 =
2018-06-21 05:54 METAR KDYL 210954Z AUTO 00000KT 10SM FEW008 FEW023 OVC038 19/19 A2976 RMK AO2
                 RAB23E50 SLP071 P0002 T01940189 =
2018-06-21 05:31 METAR KDYL 210931Z AUTO 01004KT 8SM RA FEW009 OVC037 19/18 A2975 RMK AO2 RAB23
                 P0001 T01940183 =
2018-06-21 04:54 METAR KDYL 210854Z AUTO 01003KT 10SM OVC035 20/18 A2974 RMK AO2 SLP066 T02000178
                 55006 =
2018-06-21 03:54 METAR KDYL 210754Z AUTO 02004KT 10SM OVC034 21/18 A2974 RMK AO2 SLP064 T02060178
                 =
2018-06-21 02:54 METAR KDYL 210654Z AUTO 02005KT 10SM OVC034 21/18 A2975 RMK AO2 SLP067 T02060178
                 =
2018-06-21 01:54 METAR KDYL 210554Z AUTO 36005KT 10SM OVC035 21/18 A2976 RMK AO2 SLP072 T02110183
                 10261 20211 56008 =
2018-06-21 00:54 METAR KDYL 210454Z AUTO 01006KT 10SM OVC037 22/18 A2977 RMK AO2 SLP074 T02220183
                 403060172 =
2018-06-20 23:54 METAR KDYL 210354Z AUTO 36004KT 10SM BKN040 OVC050 23/18 A2977 RMK AO2 SLP076
                 T02280178 =
2018-06-20 22:54 METAR KDYL 210254Z AUTO 01004KT 10SM OVC043 23/18 A2979 RMK AO2 SLP080 T02330178
                 53003 =
2018-06-20 21:54 METAR KDYL 210154Z AUTO 02003KT 10SM OVC046 24/18 A2978 RMK AO2 SLP079 T02390183
                 =
2018-06-20 20:54 METAR KDYL 210054Z AUTO 00000KT 10SM OVC055 24/18 A2977 RMK AO2 SLP076 T02440178
                 =
2018-06-20 19:54 METAR KDYL 202354Z AUTO 33004KT 10SM OVC060 26/17 A2978 RMK AO2 SLP078 T02610167
                 10306 20261 55004 =
2018-06-20 18:54 METAR KDYL 202254Z AUTO 35003KT 10SM OVC060 27/17 A2977 RMK AO2 SLP077 T02670172
                 =
2018-06-20 17:54 METAR KDYL 202154Z AUTO 29003KT 10SM OVC065 27/17 A2978 RMK AO2 SLP079 T02670167
                 =
2018-06-20 16:54 METAR KDYL 202054Z AUTO 28006KT 10SM BKN070 OVC100 28/16 A2979 RMK AO2 SLP082
                 T02780161 58012 =
2018-06-20 15:54 METAR KDYL 201954Z AUTO VRB04KT 10SM BKN075 OVC110 28/16 A2981 RMK AO2 SLP087
                 T02830156 =
2018-06-20 14:54 METAR KDYL 201854Z AUTO 27005KT 10SM SCT110 28/14 A2982 RMK AO2 SLP091 T02830144
                 =
2018-06-20 13:54 METAR KDYL 201754Z AUTO 00000KT 10SM CLR 29/14 A2982 RMK AO2 SLP092 T02890144
                 10294 20189 58022 =
2018-06-20 12:54 METAR KDYL 201654Z AUTO VRB03KT 10SM FEW100 28/13 A2985 RMK AO2 SLP101 T02780133
                 =

Support USWX by starting your Amazon purchase here.